createdAt,value
2018-09-06T00:01:10.835Z,8.45
2018-09-06T00:03:39.198Z,8.33
2018-09-06T00:06:07.545Z,8.88
2018-09-06T00:08:35.886Z,8.43
2018-09-06T00:11:04.380Z,8.35
2018-09-06T00:13:32.870Z,9.00
2018-09-06T00:16:01.224Z,8.75
2018-09-06T00:18:29.572Z,8.55
2018-09-06T00:20:57.923Z,9.13
2018-09-06T00:23:26.258Z,8.70
2018-09-06T00:25:54.735Z,8.33
2018-09-06T00:28:23.188Z,9.35
2018-09-06T00:30:51.542Z,8.75
2018-09-06T00:33:19.870Z,8.58
2018-09-06T00:35:48.187Z,8.33
2018-09-06T00:38:16.542Z,8.73
2018-09-06T00:40:44.916Z,8.23
2018-09-06T00:43:13.448Z,8.50
2018-09-06T00:45:42.617Z,9.18
2018-09-06T00:48:13.091Z,8.83
2018-09-06T00:50:43.840Z,8.98
2018-09-06T00:53:12.749Z,8.83
2018-09-06T00:55:42.623Z,9.18
2018-09-06T00:58:10.984Z,8.50
2018-09-06T01:00:39.338Z,8.63
2018-09-06T01:03:07.699Z,8.08
2018-09-06T01:05:36.095Z,8.45
2018-09-06T01:08:04.551Z,9.43
2018-09-06T01:10:32.849Z,8.70
2018-09-06T01:13:01.196Z,8.68
2018-09-06T01:15:29.586Z,8.65
2018-09-06T01:17:58.004Z,9.15
2018-09-06T01:20:26.358Z,8.73
2018-09-06T01:22:54.729Z,9.35
2018-09-06T01:25:23.115Z,9.45
2018-09-06T01:27:51.465Z,8.85
2018-09-06T01:30:19.811Z,8.73
2018-09-06T01:32:48.217Z,9.40
2018-09-06T01:35:16.683Z,8.98
2018-09-06T01:37:45.050Z,9.28
2018-09-06T01:40:13.423Z,9.55
2018-09-06T01:42:41.741Z,9.35
2018-09-06T01:45:10.159Z,9.25
2018-09-06T01:47:38.631Z,8.80
2018-09-06T01:50:07.088Z,9.18
2018-09-06T01:52:35.720Z,9.43
2018-09-06T01:55:04.091Z,9.25
2018-09-06T01:57:32.557Z,9.30
2018-09-06T02:00:00.939Z,9.53
2018-09-06T02:02:29.283Z,9.48
2018-09-06T02:04:57.611Z,9.38
2018-09-06T02:07:25.953Z,9.48
2018-09-06T02:09:54.403Z,8.75
2018-09-06T02:12:22.958Z,9.65
2018-09-06T02:14:51.352Z,9.23
2018-09-06T02:17:19.781Z,8.33
2018-09-06T02:19:48.084Z,9.25
2018-09-06T02:22:16.415Z,9.65
2018-09-06T02:24:44.853Z,9.35
2018-09-06T02:27:13.161Z,9.70
2018-09-06T02:29:41.516Z,9.15
2018-09-06T02:32:09.915Z,8.85
2018-09-06T02:34:38.247Z,9.38
2018-09-06T02:37:06.615Z,9.93
2018-09-06T02:39:34.945Z,9.10
2018-09-06T02:42:03.330Z,9.50
2018-09-06T02:44:31.626Z,9.90
2018-09-06T02:46:59.988Z,9.58
2018-09-06T02:49:33.830Z,9.15
2018-09-06T02:52:02.205Z,9.70
2018-09-06T02:54:30.631Z,9.65
2018-09-06T02:56:59.022Z,9.48
2018-09-06T02:59:27.396Z,9.60
2018-09-06T03:01:55.761Z,9.40
2018-09-06T03:04:24.078Z,9.50
2018-09-06T03:06:52.477Z,9.43
2018-09-06T03:09:22.282Z,10.28
2018-09-06T03:11:54.387Z,9.88
2018-09-06T03:14:23.079Z,8.83
2018-09-06T03:16:51.432Z,9.88
2018-09-06T03:19:19.839Z,9.58
2018-09-06T03:21:48.194Z,9.53
2018-09-06T03:24:16.846Z,9.58
2018-09-06T03:26:45.164Z,9.78
2018-09-06T03:29:13.559Z,9.65
2018-09-06T03:31:41.924Z,9.65
2018-09-06T03:34:10.386Z,9.58
2018-09-06T03:36:38.740Z,9.83
2018-09-06T03:39:08.284Z,9.63
2018-09-06T03:41:37.053Z,9.75
2018-09-06T03:44:05.812Z,9.55
2018-09-06T03:46:34.404Z,9.50
2018-09-06T03:49:02.762Z,9.93
2018-09-06T03:51:31.214Z,9.13
2018-09-06T03:53:59.535Z,9.13
2018-09-06T03:56:27.904Z,9.25
2018-09-06T03:58:56.257Z,9.75
2018-09-06T04:01:24.611Z,9.45
2018-09-06T04:03:52.936Z,9.53
2018-09-06T04:06:21.278Z,9.28
2018-09-06T04:08:49.688Z,8.90
2018-09-06T04:11:18.004Z,9.00
2018-09-06T04:13:46.329Z,9.33
2018-09-06T04:16:14.670Z,9.65
2018-09-06T04:18:43.055Z,9.85
2018-09-06T04:21:11.670Z,9.95
2018-09-06T04:23:40.048Z,10.03
2018-09-06T04:26:08.429Z,9.48
2018-09-06T04:28:36.821Z,9.58
2018-09-06T04:31:05.309Z,9.20
2018-09-06T04:33:33.750Z,9.43
2018-09-06T04:36:02.188Z,8.85
2018-09-06T04:38:31.081Z,9.13
2018-09-06T04:40:59.407Z,9.30
2018-09-06T04:43:28.009Z,9.43
2018-09-06T04:45:56.334Z,9.28
2018-09-06T04:48:24.675Z,9.75
2018-09-06T04:50:53.104Z,9.35
2018-09-06T04:53:21.520Z,9.53
2018-09-06T04:55:49.838Z,8.80
2018-09-06T04:58:18.288Z,9.15
2018-09-06T05:00:46.681Z,10.18
2018-09-06T05:03:15.215Z,10.23
2018-09-06T05:05:43.548Z,9.63
2018-09-06T05:08:12.229Z,10.25
2018-09-06T05:10:40.537Z,10.32
2018-09-06T05:13:08.877Z,10.28
2018-09-06T05:15:37.331Z,10.88
2018-09-06T05:18:06.501Z,11.28
2018-09-06T05:20:34.938Z,10.40
2018-09-06T05:23:03.902Z,10.75
2018-09-06T05:25:32.263Z,10.13
2018-09-06T05:28:00.591Z,10.90
2018-09-06T05:30:28.915Z,11.35
2018-09-06T05:32:57.309Z,10.80
2018-09-06T05:35:25.685Z,10.88
2018-09-06T05:37:54.171Z,10.95
2018-09-06T05:40:22.597Z,10.45
2018-09-06T05:42:51.108Z,10.35
2018-09-06T05:45:19.520Z,10.93
2018-09-06T05:47:53.321Z,11.10
2018-09-06T05:50:21.644Z,10.60
2018-09-06T05:52:50.145Z,10.63
2018-09-06T05:55:18.501Z,10.48
2018-09-06T05:57:46.931Z,10.30
2018-09-06T06:00:49.159Z,9.65
2018-09-06T06:03:18.030Z,10.53
2018-09-06T06:05:46.466Z,10.85
2018-09-06T06:08:26.231Z,10.78
2018-09-06T06:10:54.682Z,10.53
2018-09-06T06:13:23.068Z,10.63
2018-09-06T06:15:51.404Z,10.50
2018-09-06T06:18:19.763Z,10.82
2018-09-06T06:20:48.270Z,11.15
2018-09-06T06:23:16.636Z,10.93
2018-09-06T06:25:45.146Z,11.05
2018-09-06T06:28:13.550Z,10.48
2018-09-06T06:30:41.890Z,10.20
2018-09-06T06:33:10.264Z,10.45
2018-09-06T06:35:38.636Z,10.23
2018-09-06T06:38:06.971Z,10.55
2018-09-06T06:40:35.392Z,10.38
2018-09-06T06:43:04.121Z,10.58
2018-09-06T06:45:32.480Z,10.40
2018-09-06T06:48:00.841Z,10.40
2018-09-06T06:50:29.307Z,9.80
2018-09-06T06:52:57.639Z,10.18
2018-09-06T06:55:25.963Z,9.95
2018-09-06T06:57:54.346Z,9.45
2018-09-06T07:00:22.821Z,10.15
2018-09-06T07:02:51.960Z,9.65
2018-09-06T07:05:20.500Z,10.80
2018-09-06T07:07:49.287Z,9.85
2018-09-06T07:10:17.727Z,9.83
2018-09-06T07:12:46.037Z,9.48
2018-09-06T07:15:14.452Z,10.03
2018-09-06T07:17:42.999Z,9.08
2018-09-06T07:20:11.444Z,10.48
2018-09-06T07:22:39.805Z,9.43
2018-09-06T07:25:08.365Z,9.48
2018-09-06T07:27:36.702Z,9.58
2018-09-06T07:30:05.787Z,9.85
2018-09-06T07:32:34.214Z,9.23
2018-09-06T07:35:02.579Z,8.80
2018-09-06T07:37:31.185Z,9.23
2018-09-06T07:39:59.554Z,8.98
2018-09-06T07:42:27.900Z,9.28
2018-09-06T07:44:56.240Z,9.40
2018-09-06T07:47:24.569Z,9.78
2018-09-06T07:49:52.903Z,9.23
2018-09-06T07:52:21.277Z,9.40
2018-09-06T07:54:49.622Z,10.20
2018-09-06T07:57:17.984Z,9.23
2018-09-06T07:59:46.326Z,9.63
2018-09-06T08:02:14.693Z,9.50
2018-09-06T08:04:43.083Z,9.15
2018-09-06T08:07:11.415Z,9.45
2018-09-06T08:09:39.720Z,8.50
2018-09-06T08:12:08.182Z,9.65
2018-09-06T08:14:36.845Z,9.15
2018-09-06T08:17:05.283Z,9.35
2018-09-06T08:19:33.633Z,9.93
2018-09-06T08:22:02.045Z,9.20
2018-09-06T08:24:30.538Z,10.05
2018-09-06T08:26:58.868Z,8.95
2018-09-06T08:29:27.352Z,9.80
2018-09-06T08:31:55.806Z,9.65
2018-09-06T08:34:24.179Z,9.80
2018-09-06T08:36:52.687Z,9.65
2018-09-06T08:39:21.011Z,9.75
2018-09-06T08:41:49.370Z,9.60
2018-09-06T08:44:17.735Z,8.83
2018-09-06T08:46:46.073Z,9.63
2018-09-06T08:49:14.439Z,9.23
2018-09-06T08:51:42.784Z,9.55
2018-09-06T08:54:11.213Z,8.98
2018-09-06T08:56:39.545Z,9.70
2018-09-06T08:59:07.869Z,8.83
2018-09-06T09:01:38.213Z,8.30
2018-09-06T09:04:07.266Z,9.00
2018-09-06T09:06:36.174Z,9.38
2018-09-06T09:09:07.028Z,9.30
2018-09-06T09:11:35.414Z,8.33
2018-09-06T09:14:03.905Z,9.28
2018-09-06T09:16:32.373Z,8.88
2018-09-06T09:19:01.005Z,8.95
2018-09-06T09:21:29.780Z,8.73
2018-09-06T09:23:58.061Z,8.70
2018-09-06T09:26:26.441Z,9.15
2018-09-06T09:28:54.747Z,8.38
2018-09-06T09:31:23.079Z,9.45
2018-09-06T09:33:51.637Z,8.58
2018-09-06T09:36:20.026Z,8.20
2018-09-06T09:38:48.385Z,8.88
2018-09-06T09:41:16.746Z,9.50
2018-09-06T09:43:45.311Z,8.88
2018-09-06T09:48:42.309Z,9.58
2018-09-06T09:51:10.688Z,9.53
2018-09-06T09:53:39.079Z,9.20
2018-09-06T09:56:07.571Z,10.18
2018-09-06T09:58:36.091Z,10.45
2018-09-06T10:01:04.938Z,9.28
2018-09-06T10:03:38.632Z,9.83
2018-09-06T10:06:12.311Z,9.83
2018-09-06T10:08:46.094Z,8.68
2018-09-06T10:11:15.367Z,9.00
2018-09-06T10:13:43.747Z,9.43
2018-09-06T10:16:12.306Z,9.00
2018-09-06T10:18:40.701Z,9.75
2018-09-06T10:21:09.170Z,10.08
2018-09-06T10:23:37.557Z,9.75
2018-09-06T10:26:06.026Z,8.98
2018-09-06T10:28:34.432Z,9.18
2018-09-06T10:31:03.132Z,9.18
2018-09-06T10:33:31.490Z,9.30
2018-09-06T10:35:59.870Z,8.75
2018-09-06T10:38:28.294Z,9.15
2018-09-06T10:40:56.652Z,9.65
2018-09-06T10:43:25.042Z,8.78
2018-09-06T10:45:53.537Z,8.95
2018-09-06T10:48:21.921Z,8.90
2018-09-06T10:50:50.280Z,9.38
2018-09-06T10:53:18.663Z,9.03
2018-09-06T10:55:47.072Z,8.88
2018-09-06T10:58:15.582Z,9.50
2018-09-06T11:00:44.124Z,9.13
2018-09-06T11:03:12.422Z,8.45
2018-09-06T11:05:41.024Z,9.13
2018-09-06T11:08:09.483Z,8.70
2018-09-06T11:10:37.793Z,8.60
2018-09-06T11:13:06.226Z,9.43
2018-09-06T11:15:34.578Z,8.80
2018-09-06T11:18:03.022Z,9.70
2018-09-06T11:20:31.482Z,9.53
2018-09-06T11:22:59.886Z,8.93
2018-09-06T11:25:28.323Z,9.33
2018-09-06T11:27:56.883Z,8.90
2018-09-06T11:30:25.170Z,8.98
2018-09-06T11:32:53.759Z,8.55
2018-09-06T11:35:22.212Z,7.90
2018-09-06T11:37:50.743Z,8.30
2018-09-06T11:40:19.162Z,8.00
2018-09-06T11:42:47.583Z,8.05
2018-09-06T11:45:15.997Z,9.38
2018-09-06T11:47:44.571Z,8.43
2018-09-06T11:50:12.985Z,8.15
2018-09-06T11:52:41.329Z,8.30
2018-09-06T11:55:09.674Z,7.78
2018-09-06T11:57:38.307Z,8.15
2018-09-06T12:00:07.021Z,8.25
2018-09-06T12:02:35.462Z,8.33
2018-09-06T12:05:03.954Z,7.80
2018-09-06T12:07:32.362Z,8.20
2018-09-06T12:10:00.697Z,8.08
2018-09-06T12:12:29.121Z,7.67
2018-09-06T12:14:57.521Z,8.43
2018-09-06T12:17:25.915Z,8.28
2018-09-06T12:19:54.469Z,8.15
2018-09-06T12:22:22.865Z,7.95
2018-09-06T12:24:51.253Z,8.50
2018-09-06T12:27:19.757Z,8.20
2018-09-06T12:29:48.184Z,8.18
2018-09-06T12:32:16.622Z,8.50
2018-09-06T12:34:45.111Z,8.48
2018-09-06T12:37:14.596Z,8.20
2018-09-06T12:39:44.443Z,7.60
2018-09-06T12:42:14.656Z,7.95
2018-09-06T12:44:43.513Z,7.92
2018-09-06T12:47:11.910Z,7.97
2018-09-06T12:49:40.622Z,7.83
2018-09-06T12:52:08.960Z,8.73
2018-09-06T12:54:37.760Z,7.83
2018-09-06T12:57:06.265Z,8.10
2018-09-06T12:59:34.822Z,8.48
2018-09-06T13:02:03.348Z,8.90
2018-09-06T13:04:31.809Z,8.13
2018-09-06T13:07:00.154Z,7.95
2018-09-06T13:09:28.584Z,9.38
2018-09-06T13:11:57.026Z,9.75
2018-09-06T13:14:25.624Z,9.25
2018-09-06T13:16:54.529Z,9.58
2018-09-06T13:19:23.274Z,9.85
2018-09-06T13:21:51.694Z,9.25
2018-09-06T13:24:20.255Z,8.73
2018-09-06T13:26:48.644Z,9.20
2018-09-06T13:29:17.018Z,9.48
2018-09-06T13:31:45.388Z,9.45
2018-09-06T13:34:13.728Z,9.33
2018-09-06T13:36:42.284Z,9.55
2018-09-06T13:39:11.991Z,10.88
2018-09-06T13:41:40.432Z,9.95
2018-09-06T13:44:08.863Z,9.93
2018-09-06T13:46:37.312Z,10.25
2018-09-06T13:49:05.642Z,10.08
2018-09-06T13:51:34.252Z,10.18
2018-09-06T13:54:02.836Z,9.70
2018-09-06T13:56:31.268Z,9.70
2018-09-06T13:58:59.715Z,8.63
2018-09-06T14:01:28.303Z,8.83
2018-09-06T14:03:56.639Z,9.05
2018-09-06T14:06:25.241Z,8.15
2018-09-06T14:08:53.640Z,8.20
2018-09-06T14:11:22.559Z,8.70
2018-09-06T14:13:51.141Z,8.25
2018-09-06T14:16:19.822Z,9.05
2018-09-06T14:18:48.357Z,8.63
2018-09-06T14:21:16.852Z,9.88
2018-09-06T14:23:45.202Z,9.08
2018-09-06T14:26:13.548Z,8.85
2018-09-06T14:28:41.916Z,10.03
2018-09-06T14:31:10.408Z,10.48
2018-09-06T14:33:38.803Z,9.60
2018-09-06T14:36:08.911Z,9.70
2018-09-06T14:38:37.522Z,9.38
2018-09-06T14:41:05.964Z,8.88
2018-09-06T14:43:34.345Z,9.40
2018-09-06T14:46:02.882Z,10.50
2018-09-06T14:48:31.340Z,10.05
2018-09-06T14:50:59.726Z,11.28
2018-09-06T14:53:28.167Z,12.65
2018-09-06T14:55:56.638Z,12.15
2018-09-06T14:58:25.018Z,11.60
2018-09-06T15:00:53.419Z,10.15
2018-09-06T15:03:21.772Z,8.65
2018-09-06T15:05:50.116Z,7.65
2018-09-06T15:08:18.553Z,7.15
2018-09-06T15:10:46.910Z,7.03
2018-09-06T15:13:15.260Z,7.42
2018-09-06T15:15:43.792Z,6.90
2018-09-06T15:18:12.238Z,6.72
2018-09-06T15:20:40.602Z,6.75
2018-09-06T15:23:09.127Z,6.33
2018-09-06T15:25:37.736Z,6.47
2018-09-06T15:28:06.104Z,7.08
2018-09-06T15:30:34.486Z,7.45
2018-09-06T15:33:03.048Z,6.92
2018-09-06T15:35:31.405Z,6.67
2018-09-06T15:37:59.778Z,6.70
2018-09-06T15:40:28.162Z,7.37
2018-09-06T15:42:56.514Z,8.00
2018-09-06T15:45:24.870Z,7.95
2018-09-06T15:47:53.256Z,8.43
2018-09-06T15:50:21.732Z,8.40
2018-09-06T15:52:50.107Z,7.83
2018-09-06T15:55:18.528Z,7.22
2018-09-06T15:57:46.862Z,7.67
2018-09-06T16:00:15.224Z,8.63
2018-09-06T16:02:43.609Z,8.30
2018-09-06T16:05:12.090Z,9.00
2018-09-06T16:07:40.495Z,8.70
2018-09-06T16:10:09.136Z,8.80
2018-09-06T16:12:37.900Z,8.50
2018-09-06T16:15:06.576Z,8.83
2018-09-06T16:17:35.010Z,9.58
2018-09-06T16:20:03.391Z,9.53
2018-09-06T16:22:31.757Z,9.75
2018-09-06T16:25:00.120Z,9.23
2018-09-06T16:27:28.533Z,9.70
2018-09-06T16:29:57.059Z,10.05
2018-09-06T16:32:26.405Z,9.90
2018-09-06T16:34:54.897Z,10.25
2018-09-06T16:37:23.261Z,9.48
2018-09-06T16:39:51.607Z,9.65
2018-09-06T16:42:19.977Z,9.55
2018-09-06T16:44:48.513Z,9.38
2018-09-06T16:47:16.951Z,9.58
2018-09-06T16:49:45.337Z,8.90
2018-09-06T16:52:13.897Z,8.63
2018-09-06T16:54:42.506Z,9.15
2018-09-06T16:57:11.123Z,9.40
2018-09-06T16:59:39.550Z,8.45
2018-09-06T17:02:12.333Z,8.70
2018-09-06T17:04:40.835Z,8.63
2018-09-06T17:07:09.173Z,7.95
2018-09-06T17:09:37.770Z,8.88
2018-09-06T17:12:06.469Z,8.25
2018-09-06T17:14:35.034Z,9.00
2018-09-06T17:17:03.439Z,8.65
2018-09-06T17:19:31.829Z,8.93
2018-09-06T17:22:00.249Z,9.03
2018-09-06T17:24:28.639Z,9.48
2018-09-06T17:26:56.954Z,9.45
2018-09-06T17:29:25.290Z,9.18
2018-09-06T17:31:53.734Z,9.03
2018-09-06T17:34:22.351Z,9.58
2018-09-06T17:36:50.904Z,10.10
2018-09-06T17:39:19.669Z,9.80
2018-09-06T17:41:48.164Z,8.95
2018-09-06T17:44:16.528Z,9.10
2018-09-06T17:46:44.850Z,9.90
2018-09-06T17:49:13.489Z,9.68
2018-09-06T17:51:42.012Z,10.08
2018-09-06T17:54:10.540Z,9.78
2018-09-06T17:56:38.902Z,9.85
2018-09-06T17:59:07.302Z,9.45
2018-09-06T18:01:38.149Z,10.30
2018-09-06T18:04:06.823Z,9.78
2018-09-06T18:06:35.201Z,9.83
2018-09-06T18:09:06.460Z,9.98
2018-09-06T18:11:34.899Z,9.53
2018-09-06T18:14:03.394Z,9.80
2018-09-06T18:16:31.889Z,9.45
2018-09-06T18:19:00.431Z,10.90
2018-09-06T18:21:29.099Z,10.75
2018-09-06T18:23:58.066Z,11.18
2018-09-06T18:26:27.391Z,11.25
2018-09-06T18:28:55.868Z,10.70
2018-09-06T18:31:24.427Z,11.00
2018-09-06T18:33:52.987Z,10.88
2018-09-06T18:36:21.697Z,10.93
2018-09-06T18:38:50.407Z,11.53
2018-09-06T18:41:18.953Z,11.22
2018-09-06T18:43:47.588Z,11.38
2018-09-06T18:46:16.273Z,11.33
2018-09-06T18:48:44.713Z,10.55
2018-09-06T18:51:13.109Z,10.25
2018-09-06T18:53:41.545Z,11.08
2018-09-06T18:56:10.048Z,11.93
2018-09-06T18:58:38.609Z,11.53
2018-09-06T19:01:07.193Z,11.08
2018-09-06T19:03:37.661Z,10.82
2018-09-06T19:06:07.007Z,11.40
2018-09-06T19:08:35.620Z,11.40
2018-09-06T19:11:05.004Z,11.63
2018-09-06T19:13:33.551Z,11.65
2018-09-06T19:16:02.224Z,11.80
2018-09-06T19:18:30.774Z,10.95
2018-09-06T19:20:59.220Z,11.48
2018-09-06T19:23:27.584Z,11.48
2018-09-06T19:25:56.322Z,11.25
2018-09-06T19:28:25.078Z,11.57
2018-09-06T19:30:53.479Z,11.40
2018-09-06T19:33:22.035Z,10.70
2018-09-06T19:35:50.513Z,11.45
2018-09-06T19:38:18.843Z,10.90
2018-09-06T19:40:47.376Z,11.55
2018-09-06T19:43:15.779Z,10.40
2018-09-06T19:45:44.334Z,10.85
2018-09-06T19:48:13.088Z,11.18
2018-09-06T19:50:41.902Z,10.53
2018-09-06T19:53:10.589Z,10.30
2018-09-06T19:55:39.126Z,10.98
2018-09-06T19:58:07.148Z,10.18
2018-09-06T20:00:35.631Z,11.33
2018-09-06T20:03:04.023Z,12.07
2018-09-06T20:05:32.534Z,10.40
2018-09-06T20:08:01.024Z,11.15
2018-09-06T20:10:29.434Z,10.65
2018-09-06T20:12:57.968Z,10.23
2018-09-06T20:15:26.345Z,10.32
2018-09-06T20:17:54.702Z,9.63
2018-09-06T20:20:23.031Z,9.55
2018-09-06T20:22:51.402Z,9.53
2018-09-06T20:25:20.047Z,9.48
2018-09-06T20:27:48.865Z,9.18
2018-09-06T20:30:17.480Z,9.80
2018-09-06T20:32:45.984Z,10.00
2018-09-06T20:35:14.351Z,9.90
2018-09-06T20:37:42.658Z,9.30
2018-09-06T20:40:11.122Z,10.00
2018-09-06T20:42:39.611Z,10.38
2018-09-06T20:45:08.145Z,9.28
2018-09-06T20:47:36.656Z,9.00
2018-09-06T20:50:05.083Z,9.43
2018-09-06T20:52:33.483Z,9.30
2018-09-06T20:55:01.889Z,9.28
2018-09-06T20:57:30.261Z,9.53
2018-09-06T20:59:58.990Z,9.98
2018-09-06T21:02:27.401Z,9.75
2018-09-06T21:04:56.023Z,9.40
2018-09-06T21:07:25.637Z,9.60
2018-09-06T21:09:54.381Z,8.88
2018-09-06T21:12:23.005Z,8.50
2018-09-06T21:14:51.427Z,9.60
2018-09-06T21:17:19.817Z,9.25
2018-09-06T21:19:48.190Z,9.68
2018-09-06T21:22:16.581Z,9.15
2018-09-06T21:24:45.124Z,9.75
2018-09-06T21:27:13.724Z,9.95
2018-09-06T21:29:42.265Z,9.55
2018-09-06T21:32:10.905Z,9.78
2018-09-06T21:34:39.227Z,8.88
2018-09-06T21:37:07.799Z,8.60
2018-09-06T21:39:36.132Z,9.28
2018-09-06T21:42:04.601Z,9.08
2018-09-06T21:44:33.092Z,8.53
2018-09-06T21:47:02.238Z,10.05
2018-09-06T21:49:30.864Z,9.33
2018-09-06T21:52:00.237Z,9.98
2018-09-06T21:54:28.720Z,8.73
2018-09-06T21:56:57.086Z,9.00
2018-09-06T21:59:25.378Z,10.60
2018-09-06T22:01:53.760Z,10.25
2018-09-06T22:04:22.113Z,8.95
2018-09-06T22:06:50.857Z,9.53
2018-09-06T22:09:19.288Z,9.90
2018-09-06T22:11:47.879Z,9.98
2018-09-06T22:14:16.290Z,10.10
2018-09-06T22:16:44.647Z,10.10
2018-09-06T22:19:13.006Z,9.78
2018-09-06T22:21:41.367Z,9.68
2018-09-06T22:24:09.765Z,9.55
2018-09-06T22:26:38.589Z,9.58
2018-09-06T22:29:07.681Z,10.23
2018-09-06T22:31:36.313Z,10.20
2018-09-06T22:34:04.964Z,9.98
2018-09-06T22:36:33.300Z,10.78
2018-09-06T22:39:01.715Z,10.63
2018-09-06T22:41:30.189Z,10.20
2018-09-06T22:43:58.633Z,11.38
2018-09-06T22:46:27.297Z,9.95
2018-09-06T22:48:55.813Z,10.25
2018-09-06T22:51:24.152Z,9.90
2018-09-06T22:53:52.515Z,9.83
2018-09-06T22:56:20.865Z,10.63
2018-09-06T22:58:49.192Z,9.98
2018-09-06T23:01:17.549Z,10.35
2018-09-06T23:03:50.375Z,10.05
2018-09-06T23:06:18.695Z,10.58
2018-09-06T23:08:47.829Z,9.33
2018-09-06T23:11:16.301Z,10.85
2018-09-06T23:13:45.047Z,9.80
2018-09-06T23:16:13.721Z,10.82
2018-09-06T23:18:42.223Z,10.03
2018-09-06T23:21:10.694Z,10.40
2018-09-06T23:23:39.281Z,10.93
2018-09-06T23:26:07.996Z,10.80
2018-09-06T23:28:36.563Z,9.93
2018-09-06T23:31:05.271Z,10.85
2018-09-06T23:33:33.832Z,10.15
2018-09-06T23:36:02.167Z,10.28
2018-09-06T23:38:30.503Z,10.72
2018-09-06T23:40:58.864Z,10.48
2018-09-06T23:43:27.866Z,10.40
2018-09-06T23:45:57.616Z,10.58
2018-09-06T23:48:27.876Z,10.78
2018-09-06T23:50:56.995Z,10.65
2018-09-06T23:53:26.306Z,10.55
2018-09-06T23:55:55.159Z,11.50
2018-09-06T23:58:23.767Z,10.05
